sensor_id;sensor_type;location;lat;lon;timestamp;temperature;humidity
1083;DHT22;530;51.448;7.238;2023-02-23T00:01:16;10.60;99.90
1083;DHT22;530;51.448;7.238;2023-02-23T00:03:42;10.60;99.90
1083;DHT22;530;51.448;7.238;2023-02-23T00:06:09;10.60;99.90
1083;DHT22;530;51.448;7.238;2023-02-23T00:08:35;10.60;99.90
1083;DHT22;530;51.448;7.238;2023-02-23T00:11:07;10.60;99.90
1083;DHT22;530;51.448;7.238;2023-02-23T00:13:33;10.60;99.90
1083;DHT22;530;51.448;7.238;2023-02-23T00:16:07;10.60;99.90
1083;DHT22;530;51.448;7.238;2023-02-23T00:18:34;10.60;99.90
1083;DHT22;530;51.448;7.238;2023-02-23T00:21:17;10.60;99.90
1083;DHT22;530;51.448;7.238;2023-02-23T00:23:54;10.60;99.90
1083;DHT22;530;51.448;7.238;2023-02-23T00:26:21;10.60;99.90
1083;DHT22;530;51.448;7.238;2023-02-23T00:28:48;10.60;99.90
1083;DHT22;530;51.448;7.238;2023-02-23T00:31:15;10.60;99.90
1083;DHT22;530;51.448;7.238;2023-02-23T00:33:41;10.60;99.90
1083;DHT22;530;51.448;7.238;2023-02-23T00:36:10;10.60;99.90
1083;DHT22;530;51.448;7.238;2023-02-23T00:38:37;10.60;99.90
1083;DHT22;530;51.448;7.238;2023-02-23T00:41:13;10.60;99.90
1083;DHT22;530;51.448;7.238;2023-02-23T00:43:41;10.50;99.90
1083;DHT22;530;51.448;7.238;2023-02-23T00:46:13;10.50;99.90
1083;DHT22;530;51.448;7.238;2023-02-23T00:48:41;10.50;99.90
1083;DHT22;530;51.448;7.238;2023-02-23T00:51:07;10.60;99.90
1083;DHT22;530;51.448;7.238;2023-02-23T00:53:32;10.50;99.90
1083;DHT22;530;51.448;7.238;2023-02-23T00:55:58;10.60;99.90
1083;DHT22;530;51.448;7.238;2023-02-23T00:58:25;10.60;99.90
1083;DHT22;530;51.448;7.238;2023-02-23T01:00:52;10.50;99.90
1083;DHT22;530;51.448;7.238;2023-02-23T01:03:17;10.50;99.90
1083;DHT22;530;51.448;7.238;2023-02-23T01:05:43;10.50;99.90
1083;DHT22;530;51.448;7.238;2023-02-23T01:08:10;10.50;99.90
1083;DHT22;530;51.448;7.238;2023-02-23T01:10:41;10.50;99.90
1083;DHT22;530;51.448;7.238;2023-02-23T01:13:08;10.50;99.90
1083;DHT22;530;51.448;7.238;2023-02-23T01:15:40;10.40;99.90
1083;DHT22;530;51.448;7.238;2023-02-23T01:18:14;10.50;99.90
1083;DHT22;530;51.448;7.238;2023-02-23T01:20:39;10.40;99.90
1083;DHT22;530;51.448;7.238;2023-02-23T01:23:10;10.40;99.90
1083;DHT22;530;51.448;7.238;2023-02-23T01:25:38;10.40;99.90
1083;DHT22;530;51.448;7.238;2023-02-23T01:28:04;10.40;99.90
1083;DHT22;530;51.448;7.238;2023-02-23T01:30:29;10.40;99.90
1083;DHT22;530;51.448;7.238;2023-02-23T01:32:55;10.40;99.90
1083;DHT22;530;51.448;7.238;2023-02-23T01:35:21;10.50;99.90
1083;DHT22;530;51.448;7.238;2023-02-23T01:37:46;10.50;99.90
1083;DHT22;530;51.448;7.238;2023-02-23T01:40:22;10.50;99.90
1083;DHT22;530;51.448;7.238;2023-02-23T01:43:05;10.50;99.90
1083;DHT22;530;51.448;7.238;2023-02-23T01:45:37;10.40;99.90
1083;DHT22;530;51.448;7.238;2023-02-23T01:48:19;10.40;99.90
1083;DHT22;530;51.448;7.238;2023-02-23T01:51:11;10.40;99.90
1083;DHT22;530;51.448;7.238;2023-02-23T01:53:42;10.30;99.90
1083;DHT22;530;51.448;7.238;2023-02-23T01:56:15;10.40;99.90
1083;DHT22;530;51.448;7.238;2023-02-23T01:58:45;10.40;99.90
1083;DHT22;530;51.448;7.238;2023-02-23T02:01:12;10.40;99.90
1083;DHT22;530;51.448;7.238;2023-02-23T02:06:12;10.40;99.90
1083;DHT22;530;51.448;7.238;2023-02-23T02:08:40;10.30;99.90
1083;DHT22;530;51.448;7.238;2023-02-23T02:11:16;10.40;99.90
1083;DHT22;530;51.448;7.238;2023-02-23T02:14:08;10.30;99.90
1083;DHT22;530;51.448;7.238;2023-02-23T02:24:47;10.30;99.90
1083;DHT22;530;51.448;7.238;2023-02-23T02:44:13;10.40;99.90
1083;DHT22;530;51.448;7.238;2023-02-23T02:46:46;10.40;99.90
1083;DHT22;530;51.448;7.238;2023-02-23T02:49:30;10.40;99.90
1083;DHT22;530;51.448;7.238;2023-02-23T02:54:43;10.30;99.90
1083;DHT22;530;51.448;7.238;2023-02-23T02:57:12;10.30;99.90
1083;DHT22;530;51.448;7.238;2023-02-23T02:59:44;10.30;99.90
1083;DHT22;530;51.448;7.238;2023-02-23T03:02:28;10.30;99.90
1083;DHT22;530;51.448;7.238;2023-02-23T03:05:17;10.30;99.90
1083;DHT22;530;51.448;7.238;2023-02-23T03:08:46;10.30;99.90
1083;DHT22;530;51.448;7.238;2023-02-23T03:11:36;10.30;99.90
1083;DHT22;530;51.448;7.238;2023-02-23T03:18:02;10.30;99.90
1083;DHT22;530;51.448;7.238;2023-02-23T03:20:53;10.20;99.90
1083;DHT22;530;51.448;7.238;2023-02-23T03:27:13;10.30;99.90
1083;DHT22;530;51.448;7.238;2023-02-23T03:30:18;10.20;99.90
1083;DHT22;530;51.448;7.238;2023-02-23T03:33:15;10.30;99.90
1083;DHT22;530;51.448;7.238;2023-02-23T03:36:12;10.30;99.90
1083;DHT22;530;51.448;7.238;2023-02-23T03:42:02;10.30;99.90
1083;DHT22;530;51.448;7.238;2023-02-23T03:44:49;10.30;99.90
1083;DHT22;530;51.448;7.238;2023-02-23T03:47:38;10.30;99.90
1083;DHT22;530;51.448;7.238;2023-02-23T03:50:34;10.30;99.90
1083;DHT22;530;51.448;7.238;2023-02-23T03:53:26;10.30;99.90
1083;DHT22;530;51.448;7.238;2023-02-23T03:56:12;10.30;99.90
1083;DHT22;530;51.448;7.238;2023-02-23T03:59:00;10.30;99.90
1083;DHT22;530;51.448;7.238;2023-02-23T04:01:47;10.30;99.90
1083;DHT22;530;51.448;7.238;2023-02-23T04:04:33;10.30;99.90
1083;DHT22;530;51.448;7.238;2023-02-23T04:07:19;10.40;99.90
1083;DHT22;530;51.448;7.238;2023-02-23T04:10:04;10.30;99.90
1083;DHT22;530;51.448;7.238;2023-02-23T04:13:06;10.30;99.90
1083;DHT22;530;51.448;7.238;2023-02-23T04:18:16;10.30;99.90
1083;DHT22;530;51.448;7.238;2023-02-23T04:20:42;10.30;99.90
1083;DHT22;530;51.448;7.238;2023-02-23T04:23:08;10.30;99.90
1083;DHT22;530;51.448;7.238;2023-02-23T04:25:34;10.30;99.90
1083;DHT22;530;51.448;7.238;2023-02-23T04:28:00;10.20;99.90
1083;DHT22;530;51.448;7.238;2023-02-23T04:30:25;10.30;99.90
1083;DHT22;530;51.448;7.238;2023-02-23T04:32:53;10.20;99.90
1083;DHT22;530;51.448;7.238;2023-02-23T04:35:19;10.30;99.90
1083;DHT22;530;51.448;7.238;2023-02-23T04:37:45;10.20;99.90
1083;DHT22;530;51.448;7.238;2023-02-23T04:40:11;10.30;99.90
1083;DHT22;530;51.448;7.238;2023-02-23T04:42:38;10.20;99.90
1083;DHT22;530;51.448;7.238;2023-02-23T04:45:05;10.20;99.90
1083;DHT22;530;51.448;7.238;2023-02-23T04:47:31;10.20;99.90
1083;DHT22;530;51.448;7.238;2023-02-23T04:49:59;10.20;99.90
1083;DHT22;530;51.448;7.238;2023-02-23T04:52:25;10.20;99.90
1083;DHT22;530;51.448;7.238;2023-02-23T04:54:50;10.20;99.90
1083;DHT22;530;51.448;7.238;2023-02-23T04:57:16;10.20;99.90
1083;DHT22;530;51.448;7.238;2023-02-23T04:59:42;10.20;99.90
1083;DHT22;530;51.448;7.238;2023-02-23T05:02:08;10.20;99.90
1083;DHT22;530;51.448;7.238;2023-02-23T05:04:34;10.20;99.90
1083;DHT22;530;51.448;7.238;2023-02-23T05:07:00;10.20;99.90
1083;DHT22;530;51.448;7.238;2023-02-23T05:09:26;10.20;99.90
1083;DHT22;530;51.448;7.238;2023-02-23T05:11:51;10.20;99.90
1083;DHT22;530;51.448;7.238;2023-02-23T05:14:17;10.20;99.90
1083;DHT22;530;51.448;7.238;2023-02-23T05:16:43;10.20;99.90
1083;DHT22;530;51.448;7.238;2023-02-23T05:19:09;10.20;99.90
1083;DHT22;530;51.448;7.238;2023-02-23T05:21:34;10.20;99.90
1083;DHT22;530;51.448;7.238;2023-02-23T05:24:00;10.20;99.90
1083;DHT22;530;51.448;7.238;2023-02-23T05:26:26;10.10;99.90
1083;DHT22;530;51.448;7.238;2023-02-23T05:28:52;10.10;99.90
1083;DHT22;530;51.448;7.238;2023-02-23T05:31:19;10.10;99.90
1083;DHT22;530;51.448;7.238;2023-02-23T05:33:44;10.10;99.90
1083;DHT22;530;51.448;7.238;2023-02-23T05:36:15;10.10;99.90
1083;DHT22;530;51.448;7.238;2023-02-23T05:38:42;10.20;99.90
1083;DHT22;530;51.448;7.238;2023-02-23T05:41:10;10.10;99.90
1083;DHT22;530;51.448;7.238;2023-02-23T05:43:36;10.10;99.90
1083;DHT22;530;51.448;7.238;2023-02-23T05:46:23;10.10;99.90
1083;DHT22;530;51.448;7.238;2023-02-23T05:48:50;10.10;99.90
1083;DHT22;530;51.448;7.238;2023-02-23T05:51:16;10.10;99.90
1083;DHT22;530;51.448;7.238;2023-02-23T05:53:42;10.10;99.90
1083;DHT22;530;51.448;7.238;2023-02-23T05:56:12;10.10;99.90
1083;DHT22;530;51.448;7.238;2023-02-23T05:58:38;10.00;99.90
1083;DHT22;530;51.448;7.238;2023-02-23T06:01:03;10.10;99.90
1083;DHT22;530;51.448;7.238;2023-02-23T06:03:29;10.10;99.90
1083;DHT22;530;51.448;7.238;2023-02-23T06:05:57;10.00;99.90
1083;DHT22;530;51.448;7.238;2023-02-23T06:08:24;10.00;99.90
1083;DHT22;530;51.448;7.238;2023-02-23T06:10:51;10.00;99.90
1083;DHT22;530;51.448;7.238;2023-02-23T06:13:17;10.00;99.90
1083;DHT22;530;51.448;7.238;2023-02-23T06:15:43;10.00;99.90
1083;DHT22;530;51.448;7.238;2023-02-23T06:18:09;10.00;99.90
1083;DHT22;530;51.448;7.238;2023-02-23T06:20:35;10.00;99.90
1083;DHT22;530;51.448;7.238;2023-02-23T06:23:02;9.90;99.90
1083;DHT22;530;51.448;7.238;2023-02-23T06:25:28;10.00;99.90
1083;DHT22;530;51.448;7.238;2023-02-23T06:27:54;10.00;99.90
1083;DHT22;530;51.448;7.238;2023-02-23T06:30:20;10.00;99.90
1083;DHT22;530;51.448;7.238;2023-02-23T06:32:45;10.00;99.90
1083;DHT22;530;51.448;7.238;2023-02-23T06:35:11;10.00;99.90
1083;DHT22;530;51.448;7.238;2023-02-23T06:37:37;10.00;99.90
1083;DHT22;530;51.448;7.238;2023-02-23T06:40:03;9.90;99.90
1083;DHT22;530;51.448;7.238;2023-02-23T06:42:29;10.00;99.90
1083;DHT22;530;51.448;7.238;2023-02-23T06:44:55;10.00;99.90
1083;DHT22;530;51.448;7.238;2023-02-23T06:47:21;9.90;99.90
1083;DHT22;530;51.448;7.238;2023-02-23T06:49:46;10.00;99.90
1083;DHT22;530;51.448;7.238;2023-02-23T06:52:13;10.00;99.90
1083;DHT22;530;51.448;7.238;2023-02-23T06:54:41;10.00;99.90
1083;DHT22;530;51.448;7.238;2023-02-23T06:57:08;10.00;99.90
1083;DHT22;530;51.448;7.238;2023-02-23T06:59:34;10.00;99.90
1083;DHT22;530;51.448;7.238;2023-02-23T07:02:01;9.90;99.90
1083;DHT22;530;51.448;7.238;2023-02-23T07:04:29;9.90;99.90
1083;DHT22;530;51.448;7.238;2023-02-23T07:06:54;9.90;99.90
1083;DHT22;530;51.448;7.238;2023-02-23T07:09:20;9.90;99.90
1083;DHT22;530;51.448;7.238;2023-02-23T07:11:46;9.90;99.90
1083;DHT22;530;51.448;7.238;2023-02-23T07:14:12;9.90;99.90
1083;DHT22;530;51.448;7.238;2023-02-23T07:16:38;9.90;99.90
1083;DHT22;530;51.448;7.238;2023-02-23T07:19:05;9.90;99.90
1083;DHT22;530;51.448;7.238;2023-02-23T07:21:31;9.90;99.90
1083;DHT22;530;51.448;7.238;2023-02-23T07:23:58;9.90;99.90
1083;DHT22;530;51.448;7.238;2023-02-23T07:26:23;9.90;99.90
1083;DHT22;530;51.448;7.238;2023-02-23T07:28:49;10.00;99.90
1083;DHT22;530;51.448;7.238;2023-02-23T07:31:15;9.90;99.90
1083;DHT22;530;51.448;7.238;2023-02-23T07:33:41;9.90;99.90
1083;DHT22;530;51.448;7.238;2023-02-23T07:36:07;9.90;99.90
1083;DHT22;530;51.448;7.238;2023-02-23T07:38:32;9.90;99.90
1083;DHT22;530;51.448;7.238;2023-02-23T07:40:59;9.90;99.90
1083;DHT22;530;51.448;7.238;2023-02-23T07:43:24;9.90;99.90
1083;DHT22;530;51.448;7.238;2023-02-23T07:45:50;9.90;99.90
1083;DHT22;530;51.448;7.238;2023-02-23T07:48:17;9.90;99.90
1083;DHT22;530;51.448;7.238;2023-02-23T07:50:43;9.90;99.90
1083;DHT22;530;51.448;7.238;2023-02-23T07:53:09;9.90;99.90
1083;DHT22;530;51.448;7.238;2023-02-23T07:55:36;9.90;99.90
1083;DHT22;530;51.448;7.238;2023-02-23T07:58:03;9.90;99.90
1083;DHT22;530;51.448;7.238;2023-02-23T08:00:30;10.00;99.90
1083;DHT22;530;51.448;7.238;2023-02-23T08:02:55;10.00;99.90
1083;DHT22;530;51.448;7.238;2023-02-23T08:05:21;10.00;99.90
1083;DHT22;530;51.448;7.238;2023-02-23T08:07:47;10.00;99.90
1083;DHT22;530;51.448;7.238;2023-02-23T08:10:12;9.90;99.90
1083;DHT22;530;51.448;7.238;2023-02-23T08:12:38;9.90;99.90
1083;DHT22;530;51.448;7.238;2023-02-23T08:15:04;9.90;99.90
1083;DHT22;530;51.448;7.238;2023-02-23T08:17:34;10.00;99.90
1083;DHT22;530;51.448;7.238;2023-02-23T08:20:00;9.90;99.90
1083;DHT22;530;51.448;7.238;2023-02-23T08:22:26;9.90;99.90
1083;DHT22;530;51.448;7.238;2023-02-23T08:24:52;9.90;99.90
1083;DHT22;530;51.448;7.238;2023-02-23T08:27:18;9.90;99.90
1083;DHT22;530;51.448;7.238;2023-02-23T08:29:44;9.90;99.90
1083;DHT22;530;51.448;7.238;2023-02-23T08:32:10;9.90;99.90
1083;DHT22;530;51.448;7.238;2023-02-23T08:34:42;9.90;99.90
1083;DHT22;530;51.448;7.238;2023-02-23T08:37:08;9.90;99.90
1083;DHT22;530;51.448;7.238;2023-02-23T08:39:35;9.90;99.90
1083;DHT22;530;51.448;7.238;2023-02-23T08:42:01;10.00;99.90
1083;DHT22;530;51.448;7.238;2023-02-23T08:44:26;9.90;99.90
1083;DHT22;530;51.448;7.238;2023-02-23T08:46:52;10.00;99.90
1083;DHT22;530;51.448;7.238;2023-02-23T08:49:20;10.00;99.90
1083;DHT22;530;51.448;7.238;2023-02-23T08:51:45;10.00;99.90
1083;DHT22;530;51.448;7.238;2023-02-23T08:54:12;10.00;99.90
1083;DHT22;530;51.448;7.238;2023-02-23T08:56:40;9.90;99.90
1083;DHT22;530;51.448;7.238;2023-02-23T08:59:06;9.90;99.90
1083;DHT22;530;51.448;7.238;2023-02-23T09:01:33;9.90;99.90
1083;DHT22;530;51.448;7.238;2023-02-23T09:03:59;9.90;99.90
1083;DHT22;530;51.448;7.238;2023-02-23T09:06:25;9.90;99.90
1083;DHT22;530;51.448;7.238;2023-02-23T09:08:52;9.90;99.90
1083;DHT22;530;51.448;7.238;2023-02-23T09:11:18;9.80;99.90
1083;DHT22;530;51.448;7.238;2023-02-23T09:13:44;9.80;99.90
1083;DHT22;530;51.448;7.238;2023-02-23T09:16:10;9.80;99.90
1083;DHT22;530;51.448;7.238;2023-02-23T09:18:36;9.80;99.90
1083;DHT22;530;51.448;7.238;2023-02-23T09:21:06;9.90;99.90
1083;DHT22;530;51.448;7.238;2023-02-23T09:23:33;9.90;99.90
1083;DHT22;530;51.448;7.238;2023-02-23T09:26:04;10.00;99.90
1083;DHT22;530;51.448;7.238;2023-02-23T09:28:31;10.00;99.90
1083;DHT22;530;51.448;7.238;2023-02-23T09:31:04;10.00;99.90
1083;DHT22;530;51.448;7.238;2023-02-23T09:33:30;10.10;99.90
1083;DHT22;530;51.448;7.238;2023-02-23T09:35:56;10.10;99.90
1083;DHT22;530;51.448;7.238;2023-02-23T09:38:22;10.10;99.90
1083;DHT22;530;51.448;7.238;2023-02-23T09:40:53;10.10;99.90
1083;DHT22;530;51.448;7.238;2023-02-23T09:43:47;10.10;99.90
1083;DHT22;530;51.448;7.238;2023-02-23T09:46:24;10.00;99.90
1083;DHT22;530;51.448;7.238;2023-02-23T09:48:56;10.00;99.90
1083;DHT22;530;51.448;7.238;2023-02-23T09:51:23;10.00;99.90
1083;DHT22;530;51.448;7.238;2023-02-23T09:54:00;10.10;99.90
1083;DHT22;530;51.448;7.238;2023-02-23T09:56:35;10.10;99.90
1083;DHT22;530;51.448;7.238;2023-02-23T09:59:04;10.10;99.90
1083;DHT22;530;51.448;7.238;2023-02-23T10:01:53;10.00;99.90
1083;DHT22;530;51.448;7.238;2023-02-23T10:04:29;10.10;99.90
1083;DHT22;530;51.448;7.238;2023-02-23T10:20:42;10.10;99.90
1083;DHT22;530;51.448;7.238;2023-02-23T10:23:07;10.00;99.90
1083;DHT22;530;51.448;7.238;2023-02-23T10:25:41;10.00;99.90
1083;DHT22;530;51.448;7.238;2023-02-23T10:28:13;9.90;99.90
1083;DHT22;530;51.448;7.238;2023-02-23T10:30:40;9.90;99.90
1083;DHT22;530;51.448;7.238;2023-02-23T10:33:23;10.00;99.90
1083;DHT22;530;51.448;7.238;2023-02-23T10:35:57;10.00;99.90
1083;DHT22;530;51.448;7.238;2023-02-23T10:38:24;10.00;99.90
1083;DHT22;530;51.448;7.238;2023-02-23T10:40:53;10.10;99.90
1083;DHT22;530;51.448;7.238;2023-02-23T10:43:20;10.10;99.90
1083;DHT22;530;51.448;7.238;2023-02-23T10:45:50;10.00;99.90
1083;DHT22;530;51.448;7.238;2023-02-23T10:48:21;10.00;99.90
1083;DHT22;530;51.448;7.238;2023-02-23T10:50:49;10.00;99.90
1083;DHT22;530;51.448;7.238;2023-02-23T10:53:26;10.10;99.90
1083;DHT22;530;51.448;7.238;2023-02-23T10:58:46;10.00;99.90
1083;DHT22;530;51.448;7.238;2023-02-23T11:01:14;10.10;99.90
1083;DHT22;530;51.448;7.238;2023-02-23T11:03:45;10.00;99.90
1083;DHT22;530;51.448;7.238;2023-02-23T11:06:31;10.00;99.90
1083;DHT22;530;51.448;7.238;2023-02-23T11:08:57;10.00;99.90
1083;DHT22;530;51.448;7.238;2023-02-23T11:11:25;10.10;99.90
1083;DHT22;530;51.448;7.238;2023-02-23T11:13:54;10.00;99.90
1083;DHT22;530;51.448;7.238;2023-02-23T11:16:28;10.00;99.90
1083;DHT22;530;51.448;7.238;2023-02-23T11:19:04;10.00;99.90
1083;DHT22;530;51.448;7.238;2023-02-23T11:21:38;10.00;99.90
1083;DHT22;530;51.448;7.238;2023-02-23T11:26:40;10.00;99.90
1083;DHT22;530;51.448;7.238;2023-02-23T11:29:29;10.00;99.90
1083;DHT22;530;51.448;7.238;2023-02-23T11:31:58;10.00;99.90
1083;DHT22;530;51.448;7.238;2023-02-23T11:34:29;9.90;99.90
1083;DHT22;530;51.448;7.238;2023-02-23T11:37:05;9.90;99.90
1083;DHT22;530;51.448;7.238;2023-02-23T11:39:32;9.90;99.90
1083;DHT22;530;51.448;7.238;2023-02-23T11:42:20;9.90;99.90
1083;DHT22;530;51.448;7.238;2023-02-23T11:45:15;9.90;99.90
1083;DHT22;530;51.448;7.238;2023-02-23T11:47:44;9.90;99.90
1083;DHT22;530;51.448;7.238;2023-02-23T11:50:36;9.90;99.90
1083;DHT22;530;51.448;7.238;2023-02-23T11:53:05;9.80;99.90
1083;DHT22;530;51.448;7.238;2023-02-23T11:55:32;9.90;99.90
1083;DHT22;530;51.448;7.238;2023-02-23T12:00:34;9.80;99.90
1083;DHT22;530;51.448;7.238;2023-02-23T12:03:00;9.80;99.90
1083;DHT22;530;51.448;7.238;2023-02-23T12:05:29;9.80;99.90
1083;DHT22;530;51.448;7.238;2023-02-23T12:08:05;9.80;99.90
1083;DHT22;530;51.448;7.238;2023-02-23T12:10:53;9.80;99.90
1083;DHT22;530;51.448;7.238;2023-02-23T12:18:43;9.80;99.90
1083;DHT22;530;51.448;7.238;2023-02-23T12:23:54;9.90;99.90
1083;DHT22;530;51.448;7.238;2023-02-23T12:26:22;9.90;99.90
1083;DHT22;530;51.448;7.238;2023-02-23T12:29:03;9.90;99.90
1083;DHT22;530;51.448;7.238;2023-02-23T12:31:46;9.90;99.90
1083;DHT22;530;51.448;7.238;2023-02-23T12:37:33;9.80;99.90
1083;DHT22;530;51.448;7.238;2023-02-23T12:40:15;9.80;99.90
1083;DHT22;530;51.448;7.238;2023-02-23T12:45:25;9.70;99.90
1083;DHT22;530;51.448;7.238;2023-02-23T12:48:29;9.70;99.90
1083;DHT22;530;51.448;7.238;2023-02-23T12:50:59;9.70;99.90
1083;DHT22;530;51.448;7.238;2023-02-23T12:53:38;9.70;99.90
1083;DHT22;530;51.448;7.238;2023-02-23T13:01:30;9.70;99.90
1083;DHT22;530;51.448;7.238;2023-02-23T13:11:58;9.80;99.90
1083;DHT22;530;51.448;7.238;2023-02-23T13:17:26;9.70;99.90
1083;DHT22;530;51.448;7.238;2023-02-23T13:19:56;9.70;99.90
1083;DHT22;530;51.448;7.238;2023-02-23T13:25:03;9.60;99.90
1083;DHT22;530;51.448;7.238;2023-02-23T13:27:41;9.60;99.90
1083;DHT22;530;51.448;7.238;2023-02-23T13:30:10;9.60;99.90
1083;DHT22;530;51.448;7.238;2023-02-23T13:32:36;9.60;99.90
1083;DHT22;530;51.448;7.238;2023-02-23T13:35:13;9.60;99.90
1083;DHT22;530;51.448;7.238;2023-02-23T13:38:08;9.60;99.90
1083;DHT22;530;51.448;7.238;2023-02-23T13:40:44;9.60;99.90
1083;DHT22;530;51.448;7.238;2023-02-23T13:44:19;9.60;99.90
1083;DHT22;530;51.448;7.238;2023-02-23T13:51:44;9.50;99.90
1083;DHT22;530;51.448;7.238;2023-02-23T13:56:50;9.60;99.90
1083;DHT22;530;51.448;7.238;2023-02-23T13:59:30;9.50;99.90
1083;DHT22;530;51.448;7.238;2023-02-23T14:07:44;9.50;99.90
1083;DHT22;530;51.448;7.238;2023-02-23T14:10:24;9.50;99.90
1083;DHT22;530;51.448;7.238;2023-02-23T14:13:24;9.50;99.90
1083;DHT22;530;51.448;7.238;2023-02-23T14:16:16;9.50;99.90
1083;DHT22;530;51.448;7.238;2023-02-23T14:21:42;9.50;99.90
1083;DHT22;530;51.448;7.238;2023-02-23T14:24:14;9.50;99.90
1083;DHT22;530;51.448;7.238;2023-02-23T14:29:41;9.40;99.90
1083;DHT22;530;51.448;7.238;2023-02-23T14:37:35;9.50;99.90
1083;DHT22;530;51.448;7.238;2023-02-23T14:42:39;9.40;99.90
1083;DHT22;530;51.448;7.238;2023-02-23T14:45:32;9.50;99.90
1083;DHT22;530;51.448;7.238;2023-02-23T14:48:05;9.50;99.90
1083;DHT22;530;51.448;7.238;2023-02-23T14:50:33;9.40;99.90
1083;DHT22;530;51.448;7.238;2023-02-23T14:53:00;9.50;99.90
1083;DHT22;530;51.448;7.238;2023-02-23T14:55:33;9.50;99.90
1083;DHT22;530;51.448;7.238;2023-02-23T14:58:01;9.50;99.90
1083;DHT22;530;51.448;7.238;2023-02-23T15:00:30;9.50;99.90
1083;DHT22;530;51.448;7.238;2023-02-23T15:03:04;9.50;99.90
1083;DHT22;530;51.448;7.238;2023-02-23T15:08:14;9.40;99.90
1083;DHT22;530;51.448;7.238;2023-02-23T15:10:46;9.40;99.90
1083;DHT22;530;51.448;7.238;2023-02-23T15:13:26;9.40;99.90
1083;DHT22;530;51.448;7.238;2023-02-23T15:15:52;9.30;99.90
1083;DHT22;530;51.448;7.238;2023-02-23T15:18:23;9.40;99.90
1083;DHT22;530;51.448;7.238;2023-02-23T15:20:52;9.40;99.90
1083;DHT22;530;51.448;7.238;2023-02-23T15:23:18;9.40;99.90
1083;DHT22;530;51.448;7.238;2023-02-23T15:25:44;9.40;99.90
1083;DHT22;530;51.448;7.238;2023-02-23T15:28:24;9.30;99.90
1083;DHT22;530;51.448;7.238;2023-02-23T15:30:53;9.40;99.90
1083;DHT22;530;51.448;7.238;2023-02-23T15:33:20;9.40;99.90
1083;DHT22;530;51.448;7.238;2023-02-23T15:38:38;9.30;99.90
1083;DHT22;530;51.448;7.238;2023-02-23T15:41:08;9.30;99.90
1083;DHT22;530;51.448;7.238;2023-02-23T15:43:41;9.40;99.90
1083;DHT22;530;51.448;7.238;2023-02-23T15:46:08;9.40;99.90
1083;DHT22;530;51.448;7.238;2023-02-23T15:48:53;9.40;99.90
1083;DHT22;530;51.448;7.238;2023-02-23T15:51:33;9.50;99.90
1083;DHT22;530;51.448;7.238;2023-02-23T15:54:02;9.50;99.90
1083;DHT22;530;51.448;7.238;2023-02-23T15:56:33;9.40;99.90
1083;DHT22;530;51.448;7.238;2023-02-23T15:59:10;9.40;99.90
1083;DHT22;530;51.448;7.238;2023-02-23T16:01:42;9.40;99.90
1083;DHT22;530;51.448;7.238;2023-02-23T16:06:52;9.30;99.90
1083;DHT22;530;51.448;7.238;2023-02-23T16:14:18;9.30;99.90
1083;DHT22;530;51.448;7.238;2023-02-23T16:16:46;9.30;99.90
1083;DHT22;530;51.448;7.238;2023-02-23T16:19:15;9.30;99.90
1083;DHT22;530;51.448;7.238;2023-02-23T16:21:42;9.30;99.90
1083;DHT22;530;51.448;7.238;2023-02-23T16:24:14;9.30;99.90
1083;DHT22;530;51.448;7.238;2023-02-23T16:29:20;9.30;99.90
1083;DHT22;530;51.448;7.238;2023-02-23T16:31:55;9.30;99.90
1083;DHT22;530;51.448;7.238;2023-02-23T16:34:44;9.30;99.90
1083;DHT22;530;51.448;7.238;2023-02-23T16:37:16;9.20;99.90
1083;DHT22;530;51.448;7.238;2023-02-23T16:39:43;9.30;99.90
1083;DHT22;530;51.448;7.238;2023-02-23T16:42:35;9.30;99.90
1083;DHT22;530;51.448;7.238;2023-02-23T16:45:01;9.30;99.90
1083;DHT22;530;51.448;7.238;2023-02-23T16:47:33;9.30;99.90
1083;DHT22;530;51.448;7.238;2023-02-23T16:50:08;9.30;99.90
1083;DHT22;530;51.448;7.238;2023-02-23T16:52:37;9.30;99.90
1083;DHT22;530;51.448;7.238;2023-02-23T16:55:03;9.40;99.90
1083;DHT22;530;51.448;7.238;2023-02-23T16:57:33;9.30;99.90
1083;DHT22;530;51.448;7.238;2023-02-23T17:00:03;9.40;99.90
1083;DHT22;530;51.448;7.238;2023-02-23T17:02:40;9.30;99.90
1083;DHT22;530;51.448;7.238;2023-02-23T17:05:14;9.30;99.90
1083;DHT22;530;51.448;7.238;2023-02-23T17:07:44;9.30;99.90
1083;DHT22;530;51.448;7.238;2023-02-23T17:10:23;9.30;99.90
1083;DHT22;530;51.448;7.238;2023-02-23T17:13:03;9.30;99.90
1083;DHT22;530;51.448;7.238;2023-02-23T17:15:41;9.20;99.90
1083;DHT22;530;51.448;7.238;2023-02-23T17:18:12;9.20;99.90
1083;DHT22;530;51.448;7.238;2023-02-23T17:20:38;9.20;99.90
1083;DHT22;530;51.448;7.238;2023-02-23T17:23:03;9.20;99.90
1083;DHT22;530;51.448;7.238;2023-02-23T17:25:30;9.10;99.90
1083;DHT22;530;51.448;7.238;2023-02-23T17:27:57;9.10;99.90
1083;DHT22;530;51.448;7.238;2023-02-23T17:30:23;9.20;99.90
1083;DHT22;530;51.448;7.238;2023-02-23T17:32:51;9.10;99.90
1083;DHT22;530;51.448;7.238;2023-02-23T17:35:17;9.10;99.90
1083;DHT22;530;51.448;7.238;2023-02-23T17:37:43;9.10;99.90
1083;DHT22;530;51.448;7.238;2023-02-23T17:40:14;9.10;99.90
1083;DHT22;530;51.448;7.238;2023-02-23T17:42:40;9.20;99.90
1083;DHT22;530;51.448;7.238;2023-02-23T17:45:07;9.20;99.90
1083;DHT22;530;51.448;7.238;2023-02-23T17:47:34;9.10;99.90
1083;DHT22;530;51.448;7.238;2023-02-23T17:50:00;9.10;99.90
1083;DHT22;530;51.448;7.238;2023-02-23T17:52:27;9.00;99.90
1083;DHT22;530;51.448;7.238;2023-02-23T17:54:53;9.00;99.90
1083;DHT22;530;51.448;7.238;2023-02-23T17:57:21;9.00;99.90
1083;DHT22;530;51.448;7.238;2023-02-23T17:59:47;9.00;99.90
1083;DHT22;530;51.448;7.238;2023-02-23T18:02:14;9.00;99.90
1083;DHT22;530;51.448;7.238;2023-02-23T18:04:41;9.00;99.90
1083;DHT22;530;51.448;7.238;2023-02-23T18:07:07;9.00;99.90
1083;DHT22;530;51.448;7.238;2023-02-23T18:09:32;9.00;99.90
1083;DHT22;530;51.448;7.238;2023-02-23T18:11:59;9.00;99.90
1083;DHT22;530;51.448;7.238;2023-02-23T18:14:25;9.00;99.90
1083;DHT22;530;51.448;7.238;2023-02-23T18:16:51;9.00;99.90
1083;DHT22;530;51.448;7.238;2023-02-23T18:19:18;9.00;99.90
1083;DHT22;530;51.448;7.238;2023-02-23T18:21:43;9.00;99.90
1083;DHT22;530;51.448;7.238;2023-02-23T18:24:10;9.00;99.90
1083;DHT22;530;51.448;7.238;2023-02-23T18:26:36;9.00;99.90
1083;DHT22;530;51.448;7.238;2023-02-23T18:29:02;9.00;99.90
1083;DHT22;530;51.448;7.238;2023-02-23T18:31:29;8.90;99.90
1083;DHT22;530;51.448;7.238;2023-02-23T18:33:56;8.90;99.90
1083;DHT22;530;51.448;7.238;2023-02-23T18:36:29;8.90;99.90
1083;DHT22;530;51.448;7.238;2023-02-23T18:38:56;8.90;99.90
1083;DHT22;530;51.448;7.238;2023-02-23T18:41:22;8.90;99.90
1083;DHT22;530;51.448;7.238;2023-02-23T18:43:48;8.90;99.90
1083;DHT22;530;51.448;7.238;2023-02-23T18:46:14;8.90;99.90
1083;DHT22;530;51.448;7.238;2023-02-23T18:48:41;8.90;99.90
1083;DHT22;530;51.448;7.238;2023-02-23T18:51:08;8.90;99.90
1083;DHT22;530;51.448;7.238;2023-02-23T18:53:39;8.90;99.90
1083;DHT22;530;51.448;7.238;2023-02-23T18:56:07;8.90;99.90
1083;DHT22;530;51.448;7.238;2023-02-23T18:58:34;8.90;99.90
1083;DHT22;530;51.448;7.238;2023-02-23T19:01:00;8.90;99.90
1083;DHT22;530;51.448;7.238;2023-02-23T19:03:26;8.90;99.90
1083;DHT22;530;51.448;7.238;2023-02-23T19:05:51;8.90;99.90
1083;DHT22;530;51.448;7.238;2023-02-23T19:08:21;9.00;99.90
1083;DHT22;530;51.448;7.238;2023-02-23T19:10:47;8.90;99.90
1083;DHT22;530;51.448;7.238;2023-02-23T19:13:14;8.90;99.90